createdAt,value
2023-02-05T00:01:05.236Z,10.40
2023-02-05T00:03:36.894Z,10.40
2023-02-05T00:06:10.054Z,10.40
2023-02-05T00:08:40.412Z,10.40
2023-02-05T00:11:11.542Z,10.40
2023-02-05T00:13:43.433Z,10.30
2023-02-05T00:16:15.907Z,10.30
2023-02-05T00:18:46.570Z,10.30
2023-02-05T00:21:20.804Z,10.30
2023-02-05T00:23:51.625Z,10.30
2023-02-05T00:26:21.951Z,10.40
2023-02-05T00:28:52.489Z,10.40
2023-02-05T00:31:24.660Z,10.40
2023-02-05T00:33:55.734Z,10.30
2023-02-05T00:36:28.873Z,10.30
2023-02-05T00:38:59.323Z,10.30
2023-02-05T00:41:29.661Z,10.40
2023-02-05T00:43:59.979Z,10.30
2023-02-05T00:46:31.294Z,10.30
2023-02-05T00:49:01.780Z,10.30
2023-02-05T00:51:34.729Z,10.30
2023-02-05T00:54:05.257Z,10.30
2023-02-05T00:56:35.590Z,10.30
2023-02-05T00:59:06.217Z,10.30
2023-02-05T01:01:36.595Z,10.30
2023-02-05T01:04:07.347Z,10.30
2023-02-05T01:06:40.378Z,10.30
2023-02-05T01:09:10.946Z,10.30
2023-02-05T01:11:41.928Z,10.30
2023-02-05T01:14:12.422Z,10.30
2023-02-05T01:16:42.731Z,10.20
2023-02-05T01:19:13.152Z,10.30
2023-02-05T01:21:46.106Z,10.20
2023-02-05T01:24:16.452Z,10.20
2023-02-05T01:26:47.667Z,10.20
2023-02-05T01:29:18.009Z,10.20
2023-02-05T01:31:48.460Z,10.10
2023-02-05T01:34:18.824Z,10.20
2023-02-05T01:36:52.176Z,10.10
2023-02-05T01:39:22.498Z,10.10
2023-02-05T01:41:53.478Z,10.10
2023-02-05T01:44:26.446Z,10.10
2023-02-05T01:46:57.612Z,10.10
2023-02-05T01:49:33.292Z,10.20
2023-02-05T01:52:10.137Z,10.10
2023-02-05T01:54:44.270Z,10.00
2023-02-05T01:57:21.953Z,10.10
2023-02-05T01:59:53.710Z,10.10
2023-02-05T02:02:24.277Z,10.10
2023-02-05T02:05:01.684Z,10.10
2023-02-05T02:07:34.688Z,10.00
2023-02-05T02:10:07.208Z,10.10
2023-02-05T02:12:40.950Z,10.10
2023-02-05T02:15:15.992Z,10.10
2023-02-05T02:17:49.963Z,10.00
2023-02-05T02:20:23.134Z,10.00
2023-02-05T02:23:10.843Z,10.00
2023-02-05T02:26:19.642Z,9.90
2023-02-05T02:28:54.475Z,9.90
2023-02-05T02:31:32.353Z,9.90
2023-02-05T02:34:07.484Z,9.90
2023-02-05T02:36:40.161Z,9.90
2023-02-05T02:39:14.630Z,9.90
2023-02-05T02:41:50.369Z,9.90
2023-02-05T02:44:35.540Z,9.90
2023-02-05T02:47:10.086Z,9.90
2023-02-05T02:49:43.405Z,9.90
2023-02-05T02:52:17.723Z,9.80
2023-02-05T02:54:51.635Z,9.90
2023-02-05T02:57:26.673Z,9.80
2023-02-05T03:00:03.800Z,9.90
2023-02-05T03:02:36.237Z,9.80
2023-02-05T03:05:10.033Z,9.80
2023-02-05T03:07:43.897Z,9.80
2023-02-05T03:10:21.361Z,9.80
2023-02-05T03:12:51.817Z,9.80
2023-02-05T03:15:24.929Z,9.80
2023-02-05T03:17:58.459Z,9.80
2023-02-05T03:20:32.815Z,9.80
2023-02-05T03:23:03.249Z,9.80
2023-02-05T03:25:33.844Z,9.80
2023-02-05T03:28:06.186Z,9.80
2023-02-05T03:30:49.757Z,9.80
2023-02-05T03:33:42.712Z,9.70
2023-02-05T03:36:20.666Z,9.70
2023-02-05T03:39:10.068Z,9.70
2023-02-05T03:42:01.551Z,9.70
2023-02-05T03:45:01.798Z,9.70
2023-02-05T03:47:50.781Z,9.70
2023-02-05T03:50:30.418Z,9.70
2023-02-05T03:53:08.956Z,9.70
2023-02-05T03:55:44.983Z,9.70
2023-02-05T03:58:20.709Z,9.70
2023-02-05T04:00:51.713Z,9.70
2023-02-05T04:03:24.666Z,9.60
2023-02-05T04:05:56.357Z,9.70
2023-02-05T04:08:26.832Z,9.70
2023-02-05T04:10:57.781Z,9.70
2023-02-05T04:13:29.262Z,9.70
2023-02-05T04:16:00.806Z,9.70
2023-02-05T04:18:33.970Z,9.70
2023-02-05T04:21:04.885Z,9.70
2023-02-05T04:23:37.340Z,9.60
2023-02-05T04:26:08.770Z,9.60
2023-02-05T04:28:46.569Z,9.60
2023-02-05T04:31:17.108Z,9.60
2023-02-05T04:33:50.927Z,9.60
2023-02-05T04:36:22.576Z,9.60
2023-02-05T04:38:53.524Z,9.60
2023-02-05T04:41:24.944Z,9.60
2023-02-05T04:43:55.311Z,9.60
2023-02-05T04:46:25.696Z,9.60
2023-02-05T04:48:58.631Z,9.60
2023-02-05T04:51:28.924Z,9.50
2023-02-05T04:53:59.263Z,9.50
2023-02-05T04:56:29.906Z,9.50
2023-02-05T04:59:00.524Z,9.50
2023-02-05T05:01:30.897Z,9.60
2023-02-05T05:04:03.833Z,9.50
2023-02-05T05:06:34.441Z,9.50
2023-02-05T05:09:04.821Z,9.40
2023-02-05T05:11:35.186Z,9.40
2023-02-05T05:14:05.584Z,9.30
2023-02-05T05:16:35.963Z,9.30
2023-02-05T05:19:08.900Z,9.40
2023-02-05T05:21:39.298Z,9.40
2023-02-05T05:24:10.244Z,9.30
2023-02-05T05:26:43.984Z,9.30
2023-02-05T05:29:15.141Z,9.20
2023-02-05T05:31:45.977Z,9.20
2023-02-05T05:34:19.144Z,9.20
2023-02-05T05:36:49.530Z,9.20
2023-02-05T05:39:32.185Z,9.20
2023-02-05T05:42:14.887Z,9.10
2023-02-05T05:44:45.327Z,9.10
2023-02-05T05:47:15.597Z,9.10
2023-02-05T05:49:49.738Z,9.10
2023-02-05T05:52:20.091Z,9.10
2023-02-05T05:54:50.446Z,9.10
2023-02-05T05:57:21.204Z,9.10
2023-02-05T05:59:51.586Z,9.10
2023-02-05T06:02:21.953Z,9.00
2023-02-05T06:04:55.044Z,9.00
2023-02-05T06:07:25.345Z,9.00
2023-02-05T06:09:55.638Z,9.00
2023-02-05T06:12:25.952Z,9.00
2023-02-05T06:14:56.321Z,9.10
2023-02-05T06:17:26.673Z,9.00
2023-02-05T06:19:59.657Z,9.00
2023-02-05T06:22:29.927Z,9.00
2023-02-05T06:25:00.290Z,9.00
2023-02-05T06:27:30.653Z,9.00
2023-02-05T06:30:01.139Z,9.00
2023-02-05T06:32:31.728Z,9.10
2023-02-05T06:35:04.681Z,9.00
2023-02-05T06:37:46.797Z,9.00
2023-02-05T06:40:18.557Z,8.90
2023-02-05T06:42:48.866Z,8.90
2023-02-05T06:45:19.359Z,8.90
2023-02-05T06:47:49.811Z,8.90
2023-02-05T06:50:22.949Z,8.90
2023-02-05T06:52:53.316Z,8.80
2023-02-05T06:55:24.047Z,8.70
2023-02-05T06:57:54.422Z,8.70
2023-02-05T07:00:24.988Z,8.80
2023-02-05T07:02:55.452Z,8.80
2023-02-05T07:05:28.457Z,8.80
2023-02-05T07:08:00.003Z,8.80
2023-02-05T07:10:30.813Z,8.70
2023-02-05T07:13:01.353Z,8.60
2023-02-05T07:15:32.574Z,8.60
2023-02-05T07:18:03.261Z,8.70
2023-02-05T07:20:36.255Z,8.60
2023-02-05T07:23:06.786Z,8.60
2023-02-05T07:25:38.498Z,8.50
2023-02-05T07:28:10.158Z,8.50
2023-02-05T07:30:40.814Z,8.40
2023-02-05T07:33:11.297Z,8.40
2023-02-05T07:35:44.398Z,8.40
2023-02-05T07:38:15.243Z,8.40
2023-02-05T07:40:45.596Z,8.40
2023-02-05T07:43:16.025Z,8.40
2023-02-05T07:45:46.428Z,8.30
2023-02-05T07:48:16.834Z,8.20
2023-02-05T07:50:49.846Z,8.10
2023-02-05T07:53:20.210Z,8.10
2023-02-05T07:55:51.148Z,8.10
2023-02-05T07:58:21.492Z,8.10
2023-02-05T08:00:52.239Z,8.10
2023-02-05T08:03:23.379Z,8.10
2023-02-05T08:05:56.408Z,8.00
2023-02-05T08:08:26.846Z,8.10
2023-02-05T08:11:02.436Z,8.00
2023-02-05T08:13:33.252Z,8.10
2023-02-05T08:16:07.290Z,8.10
2023-02-05T08:18:37.884Z,8.10
2023-02-05T08:21:10.973Z,8.10
2023-02-05T08:23:41.302Z,8.00
2023-02-05T08:26:12.168Z,8.10
2023-02-05T08:28:43.530Z,8.00
2023-02-05T08:31:15.329Z,8.00
2023-02-05T08:33:45.936Z,8.00
2023-02-05T08:36:18.897Z,7.90
2023-02-05T08:38:49.214Z,8.00
2023-02-05T08:41:19.560Z,8.00
2023-02-05T08:43:52.081Z,8.10
2023-02-05T08:46:31.614Z,8.00
2023-02-05T08:49:07.903Z,8.10
2023-02-05T08:51:41.135Z,8.10
2023-02-05T08:54:13.563Z,8.20
2023-02-05T08:56:44.179Z,8.20
2023-02-05T08:59:15.421Z,8.20
2023-02-05T09:01:46.246Z,8.20
2023-02-05T09:04:18.243Z,8.20
2023-02-05T09:06:51.410Z,8.20
2023-02-05T09:09:21.870Z,8.30
2023-02-05T09:11:52.391Z,8.30
2023-02-05T09:14:23.005Z,8.30
2023-02-05T09:16:53.452Z,8.30
2023-02-05T09:19:23.930Z,8.30
2023-02-05T09:21:56.909Z,8.30
2023-02-05T09:24:27.295Z,8.20
2023-02-05T09:26:57.997Z,8.20
2023-02-05T09:29:28.694Z,8.20
2023-02-05T09:31:59.340Z,8.10
2023-02-05T09:34:29.804Z,8.10
2023-02-05T09:37:02.948Z,8.10
2023-02-05T09:42:35.987Z,8.20
2023-02-05T09:45:18.981Z,8.20
2023-02-05T09:47:57.217Z,8.20
2023-02-05T09:50:30.326Z,8.20
2023-02-05T09:53:06.347Z,8.20
2023-02-05T09:55:40.408Z,8.20
2023-02-05T09:58:16.417Z,8.30
2023-02-05T10:00:50.092Z,8.30
2023-02-05T10:03:28.583Z,8.30
2023-02-05T10:06:11.107Z,8.30
2023-02-05T10:08:53.186Z,8.30
2023-02-05T10:11:30.158Z,8.40
2023-02-05T10:14:10.618Z,8.40
2023-02-05T10:17:05.088Z,8.40
2023-02-05T10:19:56.077Z,8.30
2023-02-05T10:22:30.490Z,8.30
2023-02-05T10:25:39.024Z,8.30
2023-02-05T10:28:23.963Z,8.40
2023-02-05T10:31:00.591Z,8.40
2023-02-05T10:33:46.010Z,8.40
2023-02-05T10:36:17.277Z,8.30
2023-02-05T10:38:49.291Z,8.30
2023-02-05T10:41:27.475Z,8.40
2023-02-05T10:44:06.490Z,8.20
2023-02-05T10:46:40.113Z,8.30
2023-02-05T10:49:16.950Z,8.30
2023-02-05T10:51:49.207Z,8.30
2023-02-05T10:54:26.599Z,8.20
2023-02-05T10:56:58.428Z,8.30
2023-02-05T10:59:33.487Z,8.30
2023-02-05T11:02:07.838Z,8.50
2023-02-05T11:04:44.184Z,8.60
2023-02-05T11:07:16.923Z,8.60
2023-02-05T11:09:47.296Z,8.60
2023-02-05T11:12:25.813Z,8.50
2023-02-05T11:15:01.822Z,8.50
2023-02-05T11:17:36.096Z,8.50
2023-02-05T11:20:09.777Z,8.50
2023-02-05T11:22:42.285Z,8.50
2023-02-05T11:25:19.575Z,8.50
2023-02-05T11:27:56.038Z,8.60
2023-02-05T11:30:52.177Z,8.60
2023-02-05T11:33:30.067Z,8.60
2023-02-05T11:36:05.963Z,8.70
2023-02-05T11:38:47.399Z,8.70
2023-02-05T11:41:29.428Z,8.80
2023-02-05T11:44:02.464Z,8.70
2023-02-05T11:46:45.782Z,8.80
2023-02-05T11:49:24.749Z,8.90
2023-02-05T11:51:59.309Z,9.00
2023-02-05T11:54:33.390Z,9.00
2023-02-05T11:57:09.275Z,9.10
2023-02-05T11:59:39.755Z,9.00
2023-02-05T12:02:33.131Z,9.10
2023-02-05T12:05:09.594Z,9.10
2023-02-05T12:07:46.058Z,9.10
2023-02-05T12:10:26.422Z,9.10
2023-02-05T12:13:06.529Z,9.00
2023-02-05T12:15:42.831Z,9.00
2023-02-05T12:18:27.902Z,9.00
2023-02-05T12:21:12.140Z,9.00
2023-02-05T12:24:02.412Z,9.10
2023-02-05T12:26:36.883Z,9.20
2023-02-05T12:29:32.455Z,9.10
2023-02-05T12:32:08.749Z,9.20
2023-02-05T12:34:55.106Z,9.20
2023-02-05T12:37:34.952Z,9.20
2023-02-05T12:40:16.870Z,9.30
2023-02-05T12:42:57.361Z,9.30
2023-02-05T12:45:40.753Z,9.30
2023-02-05T12:48:24.209Z,9.30
2023-02-05T12:51:11.970Z,9.40
2023-02-05T12:54:03.256Z,9.50
2023-02-05T12:56:45.905Z,9.40
2023-02-05T12:59:20.128Z,9.40
2023-02-05T13:01:54.027Z,9.40
2023-02-05T13:04:30.211Z,9.30
2023-02-05T13:07:12.623Z,9.50
2023-02-05T13:09:50.508Z,9.50
2023-02-05T13:12:23.386Z,9.50
2023-02-05T13:15:03.773Z,9.50
2023-02-05T13:17:40.341Z,9.50
2023-02-05T13:20:22.928Z,9.50
2023-02-05T13:23:12.419Z,9.50
2023-02-05T13:25:59.498Z,9.60
2023-02-05T13:28:44.213Z,9.60
2023-02-05T13:31:26.790Z,9.60
2023-02-05T13:34:00.465Z,9.50
2023-02-05T13:37:15.364Z,9.50
2023-02-05T13:40:12.273Z,9.60
2023-02-05T13:43:14.130Z,9.60
2023-02-05T13:46:10.443Z,9.50
2023-02-05T13:49:08.455Z,9.50
2023-02-05T13:52:04.892Z,9.60
2023-02-05T13:55:03.862Z,9.70
2023-02-05T13:58:10.039Z,9.70
2023-02-05T14:00:43.464Z,9.70
2023-02-05T14:03:30.801Z,9.80
2023-02-05T14:06:01.299Z,9.70
2023-02-05T14:08:42.058Z,9.60
2023-02-05T14:11:15.327Z,9.60
2023-02-05T14:13:45.735Z,9.70
2023-02-05T14:16:38.267Z,9.70
2023-02-05T14:19:21.943Z,9.70
2023-02-05T14:22:08.651Z,9.70
2023-02-05T14:24:50.478Z,9.70
2023-02-05T14:27:50.774Z,9.60
2023-02-05T14:30:47.686Z,9.60
2023-02-05T14:33:39.764Z,9.60
2023-02-05T14:36:41.676Z,9.50
2023-02-05T14:39:31.776Z,9.50
2023-02-05T14:42:05.559Z,9.60
2023-02-05T14:44:42.418Z,9.70
2023-02-05T14:47:23.782Z,9.60
2023-02-05T14:49:55.232Z,9.60
2023-02-05T14:52:32.287Z,9.70
2023-02-05T14:55:07.876Z,9.60
2023-02-05T14:57:45.312Z,9.60
2023-02-05T15:00:32.362Z,9.60
2023-02-05T15:03:27.988Z,9.50
2023-02-05T15:06:02.773Z,9.50
2023-02-05T15:08:54.105Z,9.50
2023-02-05T15:11:31.656Z,9.50
2023-02-05T15:14:34.604Z,9.50
2023-02-05T15:17:37.299Z,9.50
2023-02-05T15:20:21.340Z,9.50
2023-02-05T15:22:56.598Z,9.40
2023-02-05T15:25:36.200Z,9.40
2023-02-05T15:28:20.812Z,9.40
2023-02-05T15:30:59.428Z,9.40
2023-02-05T15:33:37.578Z,9.40
2023-02-05T15:36:20.967Z,9.40
2023-02-05T15:38:56.241Z,9.30
2023-02-05T15:41:29.630Z,9.40
2023-02-05T15:44:05.168Z,9.30
2023-02-05T15:46:36.547Z,9.30
2023-02-05T15:49:08.908Z,9.30
2023-02-05T15:51:42.589Z,9.30
2023-02-05T15:54:22.490Z,9.30
2023-02-05T15:56:55.663Z,9.30
2023-02-05T15:59:29.636Z,9.40
2023-02-05T16:02:06.036Z,9.30
2023-02-05T16:04:38.346Z,9.30
2023-02-05T16:07:26.024Z,9.40
2023-02-05T16:09:59.167Z,9.40
2023-02-05T16:12:31.521Z,9.40
2023-02-05T16:15:07.206Z,9.30
2023-02-05T16:17:42.495Z,9.30
2023-02-05T16:20:23.143Z,9.30
2023-02-05T16:22:58.666Z,9.30
2023-02-05T16:25:47.942Z,9.20
2023-02-05T16:28:21.999Z,9.20
2023-02-05T16:30:55.092Z,9.10
2023-02-05T16:33:32.518Z,9.10
2023-02-05T16:36:06.335Z,9.10
2023-02-05T16:38:39.362Z,9.00
2023-02-05T16:41:25.226Z,9.00
2023-02-05T16:43:57.305Z,9.10
2023-02-05T16:46:29.679Z,8.90
2023-02-05T16:49:01.868Z,8.90
2023-02-05T16:51:36.599Z,9.00
2023-02-05T16:54:33.204Z,8.90
2023-02-05T16:57:07.524Z,8.90
2023-02-05T16:59:42.775Z,8.90
2023-02-05T17:02:29.706Z,8.80
2023-02-05T17:05:02.265Z,8.80
2023-02-05T17:07:34.106Z,8.70
2023-02-05T17:10:17.653Z,8.60
2023-02-05T17:12:54.908Z,8.70
2023-02-05T17:15:34.782Z,8.70
2023-02-05T17:18:21.012Z,8.70
2023-02-05T17:20:51.537Z,8.60
2023-02-05T17:23:21.930Z,8.60
2023-02-05T17:25:57.568Z,8.60
2023-02-05T17:28:30.164Z,8.60
2023-02-05T17:31:02.125Z,8.60
2023-02-05T17:33:32.775Z,8.60
2023-02-05T17:36:03.179Z,8.60
2023-02-05T17:38:33.548Z,8.60
2023-02-05T17:41:19.074Z,8.70
2023-02-05T17:43:49.426Z,8.60
2023-02-05T17:46:20.099Z,8.60
2023-02-05T17:48:51.415Z,8.70
2023-02-05T17:51:23.509Z,8.70
2023-02-05T17:53:54.120Z,8.60
2023-02-05T17:56:27.103Z,8.50
2023-02-05T17:58:58.889Z,8.50
2023-02-05T18:01:29.505Z,8.50
2023-02-05T18:04:00.141Z,8.50
2023-02-05T18:06:30.568Z,8.50
2023-02-05T18:09:01.177Z,8.50
2023-02-05T18:11:34.490Z,8.40
2023-02-05T18:14:05.024Z,8.40
2023-02-05T18:16:36.185Z,8.40
2023-02-05T18:19:07.010Z,8.40
2023-02-05T18:21:37.747Z,8.40
2023-02-05T18:24:08.594Z,8.30
2023-02-05T18:26:41.730Z,8.30
2023-02-05T18:29:12.118Z,8.30
2023-02-05T18:31:42.446Z,8.30
2023-02-05T18:34:12.881Z,8.20
2023-02-05T18:36:43.494Z,8.20
2023-02-05T18:39:13.971Z,8.20
2023-02-05T18:41:46.948Z,8.20
2023-02-05T18:44:17.680Z,8.20
2023-02-05T18:46:48.396Z,8.10
2023-02-05T18:49:18.846Z,8.10
2023-02-05T18:51:49.167Z,8.10
2023-02-05T18:54:19.633Z,8.10
2023-02-05T18:56:54.736Z,8.00
2023-02-05T18:59:25.885Z,8.10
2023-02-05T19:01:56.520Z,8.10
2023-02-05T19:04:28.155Z,8.00
2023-02-05T19:06:58.994Z,8.10
2023-02-05T19:09:30.914Z,8.10
2023-02-05T19:12:07.166Z,8.00
2023-02-05T19:14:37.886Z,8.00
2023-02-05T19:17:09.018Z,8.00
2023-02-05T19:19:39.965Z,8.00
2023-02-05T19:22:10.582Z,8.00
2023-02-05T19:24:43.266Z,7.90
2023-02-05T19:27:17.201Z,7.90
2023-02-05T19:29:48.687Z,7.90
2023-02-05T19:32:19.677Z,7.90
2023-02-05T19:34:50.472Z,7.90
2023-02-05T19:37:20.857Z,8.00
2023-02-05T19:39:51.825Z,8.00
2023-02-05T19:42:27.468Z,8.00
2023-02-05T19:44:58.108Z,8.00
2023-02-05T19:47:30.596Z,8.00
2023-02-05T19:50:01.423Z,7.90
2023-02-05T19:52:31.725Z,7.90
2023-02-05T19:55:02.662Z,7.90
2023-02-05T19:57:36.747Z,7.80
2023-02-05T20:00:08.271Z,7.90
2023-02-05T20:02:42.568Z,8.00
2023-02-05T20:05:14.120Z,7.90
2023-02-05T20:07:44.513Z,7.80
2023-02-05T20:10:15.738Z,7.80
2023-02-05T20:12:51.090Z,7.80
2023-02-05T20:15:21.719Z,7.90
2023-02-05T20:17:52.623Z,7.80
2023-02-05T20:20:44.501Z,7.90
2023-02-05T20:23:14.298Z,7.90
2023-02-05T20:25:45.022Z,7.80
2023-02-05T20:28:18.767Z,7.80
2023-02-05T20:31:02.647Z,7.80
2023-02-05T20:33:33.378Z,7.80
2023-02-05T20:36:07.601Z,7.80
2023-02-05T20:38:38.216Z,7.80
2023-02-05T20:41:16.059Z,7.70
2023-02-05T20:43:50.151Z,7.70
2023-02-05T20:46:20.858Z,7.70
2023-02-05T20:48:51.413Z,7.60
2023-02-05T20:51:24.666Z,7.60
2023-02-05T20:53:58.723Z,7.60
2023-02-05T20:56:31.403Z,7.50
2023-02-05T20:59:06.557Z,7.60
2023-02-05T21:01:39.484Z,7.60
2023-02-05T21:04:13.259Z,7.50
2023-02-05T21:06:45.207Z,7.60
2023-02-05T21:09:16.129Z,7.60
2023-02-05T21:11:46.827Z,7.60
2023-02-05T21:14:19.880Z,7.60
2023-02-05T21:16:50.698Z,7.50
2023-02-05T21:19:21.184Z,7.60
2023-02-05T21:21:52.607Z,7.50
2023-02-05T21:24:23.294Z,7.50
2023-02-05T21:26:54.492Z,7.50
2023-02-05T21:29:30.682Z,7.50
2023-02-05T21:32:01.766Z,7.50
2023-02-05T21:34:34.054Z,7.50
2023-02-05T21:37:04.680Z,7.50
2023-02-05T21:39:36.161Z,7.40
2023-02-05T21:42:10.048Z,7.50
2023-02-05T21:44:44.295Z,7.50
2023-02-05T21:47:14.750Z,7.40
2023-02-05T21:49:45.388Z,7.40
2023-02-05T21:52:16.175Z,7.40
2023-02-05T21:54:52.077Z,7.40
2023-02-05T21:57:30.199Z,7.30
2023-02-05T22:00:04.314Z,7.30
2023-02-05T22:02:42.765Z,7.20
2023-02-05T22:05:16.290Z,7.20
2023-02-05T22:07:46.991Z,7.20
2023-02-05T22:10:21.172Z,7.20
2023-02-05T22:12:51.991Z,7.20
2023-02-05T22:15:26.346Z,7.20
2023-02-05T22:17:59.851Z,7.30
2023-02-05T22:20:31.352Z,7.30
2023-02-05T22:23:02.727Z,7.30
2023-02-05T22:25:36.657Z,7.30
2023-02-05T22:28:07.876Z,7.30
2023-02-05T22:30:41.592Z,7.40
2023-02-05T22:33:13.594Z,7.40
2023-02-05T22:35:44.176Z,7.40
2023-02-05T22:38:14.685Z,7.40
2023-02-05T22:40:44.914Z,7.30
2023-02-05T22:43:15.389Z,7.30
2023-02-05T22:45:48.551Z,7.30
2023-02-05T22:48:22.540Z,7.30
2023-02-05T22:50:53.923Z,7.30
2023-02-05T22:53:27.575Z,7.30
2023-02-05T22:55:58.858Z,7.30
2023-02-05T22:58:32.037Z,7.20
2023-02-05T23:01:11.065Z,7.30
2023-02-05T23:03:42.697Z,7.30
2023-02-05T23:06:15.415Z,7.20
2023-02-05T23:08:49.674Z,7.20
2023-02-05T23:11:20.884Z,7.20
2023-02-05T23:13:52.517Z,7.20
2023-02-05T23:16:28.069Z,7.20
2023-02-05T23:19:01.588Z,7.10
2023-02-05T23:21:34.777Z,7.20
2023-02-05T23:24:05.766Z,7.10
2023-02-05T23:26:41.732Z,7.10
2023-02-05T23:29:13.898Z,7.20
2023-02-05T23:31:47.929Z,7.10
2023-02-05T23:34:18.314Z,7.00
2023-02-05T23:36:48.885Z,7.00
2023-02-05T23:39:19.331Z,7.00
2023-02-05T23:41:49.673Z,7.10
2023-02-05T23:44:22.584Z,7.00
2023-02-05T23:46:56.556Z,7.00
2023-02-05T23:49:29.228Z,7.10
2023-02-05T23:52:05.779Z,7.10
2023-02-05T23:54:36.201Z,7.00
2023-02-05T23:57:06.841Z,7.00
2023-02-05T23:59:37.780Z,7.00
